createdAt,value
2022-08-17T00:00:43.601Z,18.15
2022-08-17T00:05:43.690Z,18.14
2022-08-17T00:10:45.476Z,18.12
2022-08-17T00:15:47.340Z,18.10
2022-08-17T00:20:48.700Z,18.14
2022-08-17T00:25:50.329Z,18.25
2022-08-17T00:30:53.516Z,18.17
2022-08-17T00:35:55.565Z,18.11
2022-08-17T00:41:01.971Z,17.97
2022-08-17T00:46:07.231Z,17.79
2022-08-17T00:51:15.993Z,17.88
2022-08-17T00:56:21.091Z,17.79
2022-08-17T01:01:22.946Z,17.70
2022-08-17T01:06:27.084Z,17.72
2022-08-17T01:11:29.778Z,17.59
2022-08-17T01:16:32.310Z,17.54
2022-08-17T01:21:43.971Z,17.49
2022-08-17T01:26:45.465Z,17.37
2022-08-17T01:31:52.681Z,17.29
2022-08-17T01:36:54.115Z,17.24
2022-08-17T01:41:58.515Z,17.21
2022-08-17T01:46:59.871Z,17.16
2022-08-17T01:52:10.081Z,17.10
2022-08-17T01:57:11.497Z,17.02
2022-08-17T02:02:12.860Z,16.97
2022-08-17T02:07:32.647Z,16.91
2022-08-17T02:12:54.110Z,16.87
2022-08-17T02:17:55.635Z,16.84
2022-08-17T02:22:58.116Z,16.77
2022-08-17T02:27:59.507Z,16.75
2022-08-17T02:33:04.223Z,16.72
2022-08-17T02:38:07.821Z,16.72
2022-08-17T02:43:09.435Z,16.73
2022-08-17T02:48:10.958Z,16.71
2022-08-17T02:53:12.361Z,16.77
2022-08-17T02:58:14.193Z,16.86
2022-08-17T03:03:18.939Z,16.89
2022-08-17T03:08:20.358Z,16.92
2022-08-17T03:13:22.443Z,16.89
2022-08-17T03:18:26.380Z,16.88
2022-08-17T03:23:29.686Z,16.91
2022-08-17T03:28:31.709Z,17.02
2022-08-17T03:33:33.486Z,17.01
2022-08-17T03:38:39.468Z,16.99
2022-08-17T03:43:40.971Z,17.02
2022-08-17T03:49:01.205Z,17.06
2022-08-17T03:54:21.413Z,17.07
2022-08-17T03:59:23.589Z,17.06
2022-08-17T04:04:27.754Z,17.11
2022-08-17T04:09:29.528Z,17.16
2022-08-17T04:14:36.134Z,17.24
2022-08-17T04:19:49.135Z,17.21
2022-08-17T04:24:50.502Z,17.24
2022-08-17T04:29:55.635Z,17.31
2022-08-17T04:34:57.378Z,17.29
2022-08-17T04:40:17.283Z,17.30
2022-08-17T04:45:18.759Z,17.35
2022-08-17T04:50:20.101Z,17.35
2022-08-17T04:55:21.677Z,17.44
2022-08-17T05:00:25.746Z,17.47
2022-08-17T05:05:31.841Z,17.55
2022-08-17T05:10:35.107Z,17.69
2022-08-17T05:15:39.506Z,17.84
2022-08-17T05:20:46.707Z,18.17
2022-08-17T05:25:49.758Z,18.39
2022-08-17T05:30:52.008Z,18.63
2022-08-17T05:35:54.589Z,18.91
2022-08-17T05:40:56.551Z,19.06
2022-08-17T05:46:16.455Z,19.23
2022-08-17T05:51:28.032Z,19.30
2022-08-17T05:56:51.707Z,19.38
2022-08-17T06:01:57.985Z,19.59
2022-08-17T06:07:18.885Z,19.53
2022-08-17T06:12:29.074Z,19.63
2022-08-17T06:17:31.125Z,19.85
2022-08-17T06:22:34.851Z,20.05
2022-08-17T06:27:38.710Z,20.22
2022-08-17T06:32:42.302Z,20.48
2022-08-17T06:38:02.340Z,20.74
2022-08-17T06:43:06.680Z,21.02
2022-08-17T06:48:12.668Z,21.33
2022-08-17T06:53:29.369Z,21.47
2022-08-17T06:58:32.612Z,21.46
2022-08-17T07:03:54.353Z,21.48
2022-08-17T07:09:00.012Z,21.56
2022-08-17T07:14:18.841Z,21.55
2022-08-17T07:19:25.491Z,21.71
2022-08-17T07:24:33.181Z,21.78
2022-08-17T07:29:46.657Z,21.57
2022-08-17T07:35:11.112Z,21.56
2022-08-17T07:40:17.527Z,21.52
2022-08-17T07:45:37.422Z,21.41
2022-08-17T07:50:39.481Z,21.39
2022-08-17T07:55:41.802Z,21.11
2022-08-17T08:00:43.257Z,20.95
2022-08-17T08:05:52.703Z,21.05
2022-08-17T08:10:59.223Z,21.00
2022-08-17T08:16:21.337Z,20.89
2022-08-17T08:21:41.781Z,20.74
2022-08-17T08:27:01.326Z,20.74
2022-08-17T08:32:07.662Z,20.77
2022-08-17T08:37:16.343Z,20.70
2022-08-17T08:42:38.355Z,20.69
2022-08-17T08:47:58.888Z,20.67
2022-08-17T08:53:23.427Z,20.58
2022-08-17T08:58:32.146Z,20.84
2022-08-17T09:03:53.463Z,21.46
2022-08-17T09:08:55.497Z,22.21
2022-08-17T09:14:21.849Z,22.87
2022-08-17T09:19:38.117Z,23.97
2022-08-17T09:24:43.682Z,24.96
2022-08-17T09:29:49.816Z,29.77
2022-08-17T09:34:53.556Z,32.85
2022-08-17T09:40:08.402Z,31.59
2022-08-17T09:45:16.116Z,31.15
2022-08-17T09:51:01.564Z,29.96
2022-08-17T09:56:03.394Z,30.75
2022-08-17T10:01:17.048Z,32.90
2022-08-17T10:06:21.952Z,31.20
2022-08-17T10:11:50.381Z,28.44
2022-08-17T10:16:56.208Z,28.80
2022-08-17T10:22:34.964Z,30.76
2022-08-17T10:27:49.112Z,29.28
2022-08-17T10:33:02.761Z,29.45
2022-08-17T10:38:04.088Z,30.57
2022-08-17T10:43:29.352Z,31.66
2022-08-17T10:48:33.254Z,29.94
2022-08-17T10:53:34.724Z,28.79
2022-08-17T10:58:57.148Z,27.91
2022-08-17T11:04:03.517Z,27.71
2022-08-17T11:09:10.828Z,27.28
2022-08-17T11:14:17.070Z,27.40
2022-08-17T11:19:37.359Z,28.74
2022-08-17T11:24:40.370Z,28.89
2022-08-17T11:29:49.439Z,28.85
2022-08-17T11:35:06.850Z,31.16
2022-08-17T11:40:11.547Z,31.28
2022-08-17T11:45:33.102Z,31.35
2022-08-17T11:51:15.574Z,33.05
2022-08-17T11:56:30.193Z,33.34
2022-08-17T12:01:31.537Z,32.01
2022-08-17T12:06:45.358Z,31.68
2022-08-17T12:12:01.579Z,31.91
2022-08-17T12:17:09.923Z,30.52
2022-08-17T12:22:23.489Z,29.20
2022-08-17T12:27:46.253Z,30.72
2022-08-17T12:32:54.845Z,31.15
2022-08-17T12:38:00.256Z,30.23
2022-08-17T12:43:07.597Z,30.30
2022-08-17T12:48:11.007Z,31.10
2022-08-17T12:53:17.335Z,31.11
2022-08-17T12:58:21.129Z,29.75
2022-08-17T13:03:24.491Z,28.98
2022-08-17T13:08:37.235Z,28.59
2022-08-17T13:13:40.551Z,29.07
2022-08-17T13:18:55.572Z,29.00
2022-08-17T13:24:00.120Z,29.49
2022-08-17T13:29:05.327Z,29.26
2022-08-17T13:34:31.071Z,27.59
2022-08-17T13:39:40.578Z,27.56
2022-08-17T13:44:42.698Z,27.33
2022-08-17T13:49:49.009Z,28.86
2022-08-17T13:54:51.444Z,29.00
2022-08-17T14:00:09.258Z,28.55
2022-08-17T14:05:10.615Z,28.32
2022-08-17T14:10:17.320Z,27.86
2022-08-17T14:15:20.597Z,27.61
2022-08-17T14:20:22.415Z,27.72
2022-08-17T14:25:26.312Z,27.86
2022-08-17T14:30:29.841Z,27.91
2022-08-17T14:35:31.580Z,28.21
2022-08-17T14:40:34.661Z,28.22
2022-08-17T14:45:36.037Z,27.92
2022-08-17T14:50:40.584Z,27.42
2022-08-17T14:55:42.410Z,27.54
2022-08-17T15:00:43.794Z,27.34
2022-08-17T15:05:46.728Z,27.00
2022-08-17T15:10:49.174Z,26.83
2022-08-17T15:15:50.633Z,26.99
2022-08-17T15:20:52.718Z,27.00
2022-08-17T15:25:54.397Z,26.88
2022-08-17T15:30:55.785Z,26.56
2022-08-17T15:35:59.025Z,26.71
2022-08-17T15:41:00.377Z,26.62
2022-08-17T15:46:01.800Z,26.58
2022-08-17T15:51:03.152Z,26.56
2022-08-17T15:56:05.365Z,26.48
2022-08-17T16:01:18.211Z,26.31
2022-08-17T16:06:28.684Z,26.32
2022-08-17T16:11:30.235Z,26.25
2022-08-17T16:16:31.594Z,26.04
2022-08-17T16:21:43.201Z,25.97
2022-08-17T16:26:44.715Z,25.97
2022-08-17T16:31:46.093Z,25.96
2022-08-17T16:36:54.675Z,25.96
2022-08-17T16:41:57.638Z,25.86
2022-08-17T16:47:00.707Z,25.81
2022-08-17T16:52:03.256Z,25.83
2022-08-17T16:57:05.243Z,25.83
2022-08-17T17:02:11.219Z,25.85
2022-08-17T17:07:33.652Z,25.76
2022-08-17T17:13:01.245Z,25.64
2022-08-17T17:18:06.194Z,25.56
2022-08-17T17:23:12.683Z,25.36
2022-08-17T17:28:24.885Z,25.10
2022-08-17T17:33:29.123Z,24.97
2022-08-17T17:38:39.252Z,24.83
2022-08-17T17:43:41.362Z,24.67
2022-08-17T17:48:42.753Z,24.50
2022-08-17T17:54:02.896Z,24.32
2022-08-17T17:59:12.791Z,24.15
2022-08-17T18:04:31.907Z,24.04
2022-08-17T18:09:34.029Z,23.90
2022-08-17T18:15:02.072Z,23.74
2022-08-17T18:20:07.052Z,23.58
2022-08-17T18:25:28.409Z,23.50
2022-08-17T18:30:29.869Z,23.30
2022-08-17T18:35:32.588Z,23.14
2022-08-17T18:40:36.116Z,22.98
2022-08-17T18:45:50.045Z,22.78
2022-08-17T18:50:53.583Z,22.62
2022-08-17T18:56:13.659Z,22.44
2022-08-17T19:01:19.226Z,22.33
2022-08-17T19:06:28.233Z,22.22
2022-08-17T19:11:31.978Z,22.15
2022-08-17T19:16:33.330Z,21.99
2022-08-17T19:21:40.354Z,21.88
2022-08-17T19:26:54.392Z,21.76
2022-08-17T19:31:58.694Z,21.62
2022-08-17T19:37:03.657Z,21.49
2022-08-17T19:42:12.477Z,21.39
2022-08-17T19:47:54.434Z,21.33
2022-08-17T19:53:02.023Z,21.23
2022-08-17T19:58:08.007Z,21.08
2022-08-17T20:03:41.812Z,20.96
2022-08-17T20:08:50.420Z,20.85
2022-08-17T20:14:13.243Z,20.82
2022-08-17T20:19:28.324Z,20.74
2022-08-17T20:24:32.790Z,20.58
2022-08-17T20:29:54.080Z,20.50
2022-08-17T20:35:14.097Z,20.31
2022-08-17T20:40:19.271Z,20.12
2022-08-17T20:45:20.628Z,19.99
2022-08-17T20:50:36.101Z,19.91
2022-08-17T20:55:39.349Z,19.86
2022-08-17T21:00:56.515Z,19.72
2022-08-17T21:06:14.445Z,19.61
2022-08-17T21:11:56.748Z,19.49
2022-08-17T21:17:07.896Z,19.39
2022-08-17T21:22:28.500Z,19.26
2022-08-17T21:27:37.668Z,19.19
2022-08-17T21:32:40.483Z,19.25
2022-08-17T21:37:48.367Z,19.34
2022-08-17T21:42:52.695Z,19.33
2022-08-17T21:48:07.956Z,19.31
2022-08-17T21:53:13.165Z,19.26
2022-08-17T21:58:29.290Z,19.23
2022-08-17T22:03:31.148Z,19.20
2022-08-17T22:08:32.508Z,19.18
2022-08-17T22:13:37.481Z,19.19
2022-08-17T22:18:39.930Z,19.09
2022-08-17T22:24:01.070Z,19.07
2022-08-17T22:29:02.481Z,19.03
2022-08-17T22:34:03.782Z,18.96
2022-08-17T22:39:10.919Z,18.89
2022-08-17T22:44:14.291Z,18.95
2022-08-17T22:49:21.919Z,19.05
2022-08-17T22:54:41.775Z,18.88
2022-08-17T22:59:43.671Z,18.73
2022-08-17T23:04:47.713Z,18.64
2022-08-17T23:09:49.146Z,18.54
2022-08-17T23:14:55.936Z,18.39
2022-08-17T23:19:57.350Z,18.32
2022-08-17T23:24:59.772Z,18.24
2022-08-17T23:30:01.313Z,18.16
2022-08-17T23:35:02.667Z,18.14
2022-08-17T23:40:05.374Z,18.12
2022-08-17T23:45:07.767Z,18.03
2022-08-17T23:50:09.401Z,17.96
2022-08-17T23:55:10.821Z,17.90
